Time;durP1;ratioP1;P1;durP2;ratioP2;P2;SDS_P1;SDS_P2;PMS_P1;PMS_P2;Temp;Humidity;BMP_temperature;BMP_pressure;BME280_temperature;BME280_humidity;BME280_pressure;Samples;Min_cycle;Max_cycle;Signal;HPM_P1;HPM_P2
2022/09/21 00:00:38;;;;;;;7.13;1.20;;;9.50;99.90;;;;;;6165114;28;20295;-67
2022/09/21 00:03:42;;;;;;;6.93;1.20;;;9.50;99.90;;;;;;6165684;29;20187;-67
2022/09/21 00:06:47;;;;;;;3.08;1.48;;;9.50;99.90;;;;;;6165156;28;20262;-67
2022/09/21 00:09:52;;;;;;;8.63;1.55;;;9.50;99.90;;;;;;6165015;29;20497;-67
2022/09/21 00:12:57;;;;;;;8.00;1.67;;;9.50;99.90;;;;;;6165034;28;20427;-67
2022/09/21 00:16:02;;;;;;;3.55;1.52;;;9.40;99.90;;;;;;6164765;28;20470;-67
2022/09/21 00:19:06;;;;;;;6.53;1.40;;;9.50;99.90;;;;;;6164998;28;20192;-67
2022/09/21 00:22:10;;;;;;;6.50;1.23;;;9.40;99.90;;;;;;6163788;29;20230;-67
2022/09/21 00:25:16;;;;;;;3.95;1.42;;;9.40;99.90;;;;;;6164743;28;20214;-67
2022/09/21 00:28:21;;;;;;;1.30;1.30;;;9.50;99.90;;;;;;6164972;29;20188;-67
2022/09/21 00:31:26;;;;;;;1.00;1.00;;;9.40;99.90;;;;;;6164787;28;20242;-67
2022/09/21 00:34:31;;;;;;;5.28;1.60;;;9.40;99.90;;;;;;6165159;29;20187;-67
2022/09/21 00:37:35;;;;;;;6.28;1.60;;;9.40;99.90;;;;;;6164513;28;20433;-67
2022/09/21 00:40:40;;;;;;;1.77;0.88;;;9.40;99.90;;;;;;6164200;28;20440;-66
2022/09/21 00:43:48;;;;;;;1.45;1.20;;;9.30;99.90;;;;;;6164969;29;20227;-66
2022/09/21 00:46:55;;;;;;;4.85;1.35;;;9.20;99.90;;;;;;6164247;28;20622;-67
2022/09/21 00:50:00;;;;;;;2.92;1.00;;;9.10;99.90;;;;;;6164853;29;20262;-67
2022/09/21 00:53:05;;;;;;;3.63;1.25;;;9.10;99.90;;;;;;6164284;28;20241;-67
2022/09/21 00:56:13;;;;;;;7.18;1.60;;;9.10;99.90;;;;;;6164181;28;20277;-66
2022/09/21 00:59:18;;;;;;;21.08;2.00;;;9.20;99.90;;;;;;6151469;29;20199;-67
2022/09/21 01:02:25;;;;;;;6.53;1.25;;;9.20;99.90;;;;;;6140463;29;20427;-67
2022/09/21 01:05:29;;;;;;;10.80;1.40;;;9.20;99.90;;;;;;6140386;29;20266;-67
2022/09/21 01:08:33;;;;;;;6.88;1.55;;;9.30;99.90;;;;;;6140011;29;20482;-67
2022/09/21 01:11:46;;;;;;;9.73;1.50;;;9.30;99.90;;;;;;6140319;29;20237;-67
2022/09/21 01:15:14;;;;;;;7.00;1.95;;;9.30;99.90;;;;;;6140686;29;20236;-67
2022/09/21 01:18:21;;;;;;;7.50;1.50;;;9.20;99.90;;;;;;6139974;29;20509;-66
2022/09/21 01:21:27;;;;;;;1.52;1.10;;;9.20;99.90;;;;;;6140140;29;20303;-67
2022/09/21 01:24:55;;;;;;;10.23;2.05;;;9.20;99.90;;;;;;6140684;29;20219;-68
2022/09/21 01:28:16;;;;;;;4.82;1.80;;;9.10;99.90;;;;;;6140091;29;20254;-68
2022/09/21 01:31:25;;;;;;;13.32;1.60;;;9.10;99.90;;;;;;6140014;29;20291;-67
2022/09/21 01:34:36;;;;;;;9.60;1.40;;;9.10;99.90;;;;;;6140555;29;20235;-67
2022/09/21 01:37:45;;;;;;;7.45;1.75;;;9.00;99.90;;;;;;6140011;29;20232;-68
2022/09/21 01:40:54;;;;;;;3.33;1.50;;;9.00;99.90;;;;;;6140037;29;20294;-67
2022/09/21 01:44:07;;;;;;;3.30;1.30;;;9.00;99.90;;;;;;6140352;29;20236;-67
2022/09/21 01:47:13;;;;;;;1.58;1.20;;;9.00;99.90;;;;;;6139914;29;20236;-68
2022/09/21 01:50:19;;;;;;;3.35;1.30;;;9.00;99.90;;;;;;6139760;29;20193;-68
2022/09/21 01:53:28;;;;;;;8.13;1.30;;;9.00;99.90;;;;;;6140409;29;20188;-68
2022/09/21 01:56:37;;;;;;;2.35;1.30;;;9.00;99.90;;;;;;6139933;29;20255;-67
2022/09/21 01:59:49;;;;;;;4.18;1.20;;;9.00;99.90;;;;;;6156811;29;20210;-67
2022/09/21 02:02:59;;;;;;;7.65;1.25;;;9.00;99.90;;;;;;6163052;28;20238;-68
2022/09/21 02:06:05;;;;;;;8.55;1.40;;;9.00;99.90;;;;;;6163306;28;20286;-68
2022/09/21 02:09:10;;;;;;;8.20;1.40;;;8.90;99.90;;;;;;6163894;28;20238;-67
2022/09/21 02:12:14;;;;;;;2.15;1.75;;;8.90;99.90;;;;;;6163424;28;20255;-68
2022/09/21 02:15:28;;;;;;;1.30;1.20;;;8.90;99.90;;;;;;6163346;28;20231;-68
2022/09/21 02:18:47;;;;;;;1.10;1.10;;;8.90;99.90;;;;;;6164554;28;20299;-67
2022/09/21 02:21:58;;;;;;;3.67;1.30;;;9.00;99.90;;;;;;6167673;28;20246;-68
2022/09/21 02:25:09;;;;;;;6.50;1.10;;;8.90;99.90;;;;;;6168180;28;20271;-68
2022/09/21 02:28:23;;;;;;;1.42;1.23;;;8.90;99.90;;;;;;6143833;29;20224;-67
2022/09/21 02:31:36;;;;;;;5.40;1.30;;;9.00;99.90;;;;;;6143411;29;20228;-67
2022/09/21 02:34:46;;;;;;;3.85;1.05;;;9.00;99.90;;;;;;6143273;29;20195;-67
2022/09/21 02:37:55;;;;;;;3.15;0.93;;;9.00;99.90;;;;;;6143324;29;20235;-67
2022/09/21 02:41:05;;;;;;;2.97;1.05;;;9.10;99.90;;;;;;6143487;29;20367;-67
2022/09/21 02:44:17;;;;;;;2.70;0.93;;;9.10;99.90;;;;;;6143468;29;20259;-67
2022/09/21 02:47:26;;;;;;;5.13;1.25;;;9.10;99.90;;;;;;6143124;29;20236;-66
2022/09/21 02:50:36;;;;;;;6.47;1.13;;;9.10;99.90;;;;;;6143260;29;20240;-67
2022/09/21 02:53:41;;;;;;;3.40;1.67;;;9.10;99.90;;;;;;6143630;29;20195;-66
2022/09/21 02:56:50;;;;;;;13.88;1.92;;;9.00;99.90;;;;;;6142932;29;20303;-66
2022/09/21 02:59:54;;;;;;;3.30;1.38;;;9.20;99.90;;;;;;6125095;29;20224;-68
2022/09/21 03:02:58;;;;;;;5.88;1.25;;;9.20;99.90;;;;;;6112578;29;20235;-68
2022/09/21 03:06:04;;;;;;;1.83;1.10;;;9.30;99.90;;;;;;6136036;29;20266;-68
2022/09/21 03:09:10;;;;;;;14.13;1.13;;;9.30;99.90;;;;;;6133896;29;20290;-68
2022/09/21 03:12:14;;;;;;;2.08;1.25;;;9.30;99.90;;;;;;6162874;29;20329;-68
2022/09/21 03:15:18;;;;;;;6.25;1.00;;;9.30;99.90;;;;;;6166584;28;20278;-67
2022/09/21 03:18:22;;;;;;;1.45;1.00;;;9.20;99.90;;;;;;6165517;28;20294;-67
2022/09/21 03:21:29;;;;;;;0.88;0.88;;;9.10;99.90;;;;;;6142978;29;20255;-68
2022/09/21 03:24:45;;;;;;;1.80;0.95;;;9.30;99.90;;;;;;6142371;29;20254;-67
2022/09/21 03:27:51;;;;;;;0.95;0.93;;;9.10;99.90;;;;;;6141895;29;20232;-68
2022/09/21 03:30:55;;;;;;;3.10;0.93;;;9.20;99.90;;;;;;6142040;29;20418;-67
2022/09/21 03:33:59;;;;;;;1.00;0.90;;;9.30;99.90;;;;;;6142351;29;20278;-68
2022/09/21 03:37:07;;;;;;;2.30;1.00;;;9.30;99.90;;;;;;6155653;29;20391;-68
2022/09/21 03:40:12;;;;;;;0.98;0.98;;;9.40;99.90;;;;;;6165874;28;20231;-67
2022/09/21 03:43:17;;;;;;;1.67;0.98;;;9.20;99.90;;;;;;6165657;28;20242;-65
2022/09/21 03:46:23;;;;;;;2.13;1.00;;;9.20;99.90;;;;;;6166168;28;20194;-67
2022/09/21 03:49:28;;;;;;;0.85;0.85;;;9.30;99.90;;;;;;6165782;28;20301;-68
2022/09/21 03:52:35;;;;;;;2.47;1.20;;;9.30;99.90;;;;;;6165660;28;20187;-67
2022/09/21 03:55:39;;;;;;;6.93;1.10;;;9.30;99.90;;;;;;6165685;29;20415;-68
2022/09/21 03:58:43;;;;;;;1.05;1.05;;;9.40;99.90;;;;;;6165334;28;20257;-68
2022/09/21 04:01:47;;;;;;;2.70;2.10;;;9.30;99.90;;;;;;6165575;29;20211;-68
2022/09/21 04:04:52;;;;;;;2.15;1.00;;;9.30;99.90;;;;;;6165296;28;20294;-67
2022/09/21 04:07:57;;;;;;;1.08;1.08;;;9.40;99.90;;;;;;6164896;28;20593;-68
2022/09/21 04:11:02;;;;;;;2.65;1.10;;;9.40;99.90;;;;;;6152870;28;20245;-67
2022/09/21 04:14:06;;;;;;;2.67;1.15;;;9.40;99.90;;;;;;6139950;29;20301;-67
2022/09/21 04:17:13;;;;;;;3.60;1.00;;;9.30;99.90;;;;;;6141544;29;20259;-67
2022/09/21 04:20:17;;;;;;;4.65;1.50;;;9.40;99.90;;;;;;6141203;29;20246;-67
2022/09/21 04:23:23;;;;;;;1.83;1.00;;;9.50;99.90;;;;;;6140766;28;20565;-67
2022/09/21 04:26:30;;;;;;;3.08;0.95;;;9.40;99.90;;;;;;6141133;29;20195;-68
2022/09/21 04:29:34;;;;;;;3.67;1.23;;;9.40;99.90;;;;;;6139808;29;20235;-67
2022/09/21 04:32:39;;;;;;;3.40;1.10;;;9.50;99.90;;;;;;6140886;29;20235;-68
2022/09/21 04:35:43;;;;;;;6.60;1.20;;;9.50;99.90;;;;;;6141322;29;20255;-68
2022/09/21 04:38:49;;;;;;;1.48;1.10;;;9.50;99.90;;;;;;6140635;29;20235;-67
2022/09/21 04:41:53;;;;;;;1.58;1.20;;;9.50;99.90;;;;;;6140230;29;20223;-67
2022/09/21 04:44:57;;;;;;;2.97;1.00;;;9.50;99.90;;;;;;6140571;29;20247;-68
2022/09/21 04:48:02;;;;;;;0.80;0.80;;;9.50;99.90;;;;;;6140726;29;20302;-67
2022/09/21 04:51:07;;;;;;;1.13;1.13;;;9.50;99.90;;;;;;6140922;29;20192;-67
2022/09/21 04:54:13;;;;;;;7.18;0.98;;;9.40;99.90;;;;;;6140232;29;20467;-67
2022/09/21 04:57:18;;;;;;;5.40;1.10;;;9.30;99.90;;;;;;6139933;29;20189;-67
2022/09/21 05:00:22;;;;;;;2.65;1.23;;;9.30;99.90;;;;;;6140480;29;20264;-67
2022/09/21 05:03:27;;;;;;;1.10;1.10;;;9.30;99.90;;;;;;6140050;29;20535;-67
2022/09/21 05:06:32;;;;;;;1.80;1.20;;;9.40;99.90;;;;;;6140355;29;20535;-67
2022/09/21 05:12:59;;;;;;;3.05;1.02;;;9.40;99.90;;;;;;6164074;28;20241;-67
2022/09/21 05:16:04;;;;;;;1.30;1.25;;;9.40;99.90;;;;;;6164432;28;20195;-67
2022/09/21 05:19:09;;;;;;;1.75;1.40;;;9.50;99.90;;;;;;6163787;28;20416;-67
2022/09/21 05:22:13;;;;;;;1.10;0.95;;;9.50;99.90;;;;;;6164007;29;20188;-67
2022/09/21 05:25:18;;;;;;;0.90;0.90;;;9.40;99.90;;;;;;6164060;28;20274;-67
2022/09/21 05:28:23;;;;;;;1.67;0.90;;;9.40;99.90;;;;;;6163534;28;20239;-67
2022/09/21 05:31:36;;;;;;;1.95;0.90;;;9.40;99.90;;;;;;6164279;28;20195;-67
2022/09/21 05:34:51;;;;;;;2.95;1.20;;;9.50;99.90;;;;;;6163489;28;20230;-67
2022/09/21 05:38:01;;;;;;;0.90;0.90;;;9.40;99.90;;;;;;6163494;28;20294;-67
2022/09/21 05:41:09;;;;;;;1.00;0.80;;;9.50;99.90;;;;;;6163684;28;20336;-68
2022/09/21 05:44:15;;;;;;;1.13;1.05;;;9.50;99.90;;;;;;6163692;28;20298;-68
2022/09/21 05:47:26;;;;;;;3.97;1.00;;;9.50;99.90;;;;;;6163614;28;20211;-68
2022/09/21 05:50:44;;;;;;;2.13;0.98;;;9.50;99.90;;;;;;6164160;29;20196;-68
2022/09/21 05:53:59;;;;;;;1.00;1.00;;;9.50;99.90;;;;;;6164335;28;20251;-68
2022/09/21 05:57:10;;;;;;;1.45;1.20;;;9.60;99.90;;;;;;6168125;29;20414;-67
2022/09/21 06:00:18;;;;;;;1.13;1.13;;;9.60;99.90;;;;;;6167928;28;20304;-68
2022/09/21 06:03:28;;;;;;;4.55;1.20;;;9.70;99.90;;;;;;6167952;28;20237;-68
2022/09/21 06:06:33;;;;;;;1.17;1.00;;;9.70;99.90;;;;;;6168005;29;20215;-67
2022/09/21 06:09:37;;;;;;;1.35;1.35;;;9.70;99.90;;;;;;6166819;28;20251;-68
2022/09/21 06:12:47;;;;;;;2.22;1.23;;;9.70;99.90;;;;;;6143718;29;20227;-68
2022/09/21 06:15:52;;;;;;;2.92;1.20;;;9.70;99.90;;;;;;6143979;29;20472;-67
2022/09/21 06:18:56;;;;;;;1.10;1.10;;;9.70;99.90;;;;;;6143615;29;20242;-68
2022/09/21 06:22:00;;;;;;;2.05;1.20;;;9.70;99.90;;;;;;6144367;29;20204;-68
2022/09/21 06:25:06;;;;;;;4.63;1.23;;;9.70;99.90;;;;;;6143706;29;20231;-67
2022/09/21 06:28:16;;;;;;;1.15;1.15;;;9.60;99.90;;;;;;6142624;29;20261;-67
2022/09/21 06:31:20;;;;;;;4.13;1.23;;;9.70;99.90;;;;;;6143555;29;20376;-67
2022/09/21 06:34:25;;;;;;;1.20;1.20;;;9.80;99.90;;;;;;6158180;29;20236;-67
2022/09/21 06:37:29;;;;;;;3.63;1.15;;;9.90;99.90;;;;;;6143372;29;20251;-67
2022/09/21 06:40:35;;;;;;;1.17;1.10;;;10.00;99.90;;;;;;6143787;29;20239;-67
2022/09/21 06:43:41;;;;;;;1.08;1.08;;;10.00;99.90;;;;;;6143082;29;20231;-67
2022/09/21 06:46:45;;;;;;;2.47;1.10;;;10.10;99.90;;;;;;6143254;29;20496;-66
2022/09/21 06:49:49;;;;;;;3.67;1.63;;;10.20;99.90;;;;;;6142951;29;20235;-67
2022/09/21 06:52:54;;;;;;;2.92;1.20;;;10.20;99.90;;;;;;6142651;29;20254;-67
2022/09/21 06:56:03;;;;;;;1.02;1.02;;;10.30;99.90;;;;;;6143300;29;20199;-67
2022/09/21 06:59:09;;;;;;;3.30;1.00;;;10.30;99.90;;;;;;6142773;29;20242;-67
2022/09/21 07:02:13;;;;;;;0.90;0.90;;;10.40;99.90;;;;;;6142647;29;20192;-67
2022/09/21 07:05:17;;;;;;;4.50;1.00;;;10.40;99.90;;;;;;6141888;29;20286;-67
2022/09/21 07:08:22;;;;;;;2.22;1.05;;;10.50;99.90;;;;;;6142498;28;20234;-67
2022/09/21 07:11:46;;;;;;;2.08;1.10;;;10.50;99.90;;;;;;6160950;29;20263;-67
2022/09/21 07:14:51;;;;;;;2.50;1.20;;;10.50;99.90;;;;;;6166438;28;20277;-67
2022/09/21 07:17:56;;;;;;;4.43;1.30;;;10.60;99.90;;;;;;6166028;28;20421;-68
2022/09/21 07:21:11;;;;;;;4.50;1.20;;;10.60;99.90;;;;;;6166637;29;20235;-68
2022/09/21 07:24:15;;;;;;;4.00;1.20;;;10.60;99.90;;;;;;6166142;28;20419;-68
2022/09/21 07:27:19;;;;;;;5.82;1.20;;;10.70;99.90;;;;;;6166147;28;20234;-68
2022/09/21 07:30:26;;;;;;;3.10;1.10;;;10.70;99.90;;;;;;6166707;29;20195;-67
2022/09/21 07:33:32;;;;;;;1.30;1.02;;;10.80;99.90;;;;;;6165867;28;20382;-68
2022/09/21 07:36:39;;;;;;;7.00;1.30;;;10.80;99.90;;;;;;6166127;28;20187;-68
2022/09/21 07:39:43;;;;;;;1.75;1.00;;;10.90;99.90;;;;;;6165927;28;20235;-68
2022/09/21 07:42:47;;;;;;;1.23;1.23;;;10.90;99.90;;;;;;6165891;28;20227;-68
2022/09/21 07:45:56;;;;;;;3.38;0.98;;;11.00;99.90;;;;;;6166238;29;20234;-68
2022/09/21 07:49:01;;;;;;;1.63;1.55;;;11.00;99.90;;;;;;6165670;28;20298;-68
2022/09/21 07:52:05;;;;;;;3.10;0.90;;;11.10;99.90;;;;;;6165840;29;20187;-68
2022/09/21 07:55:14;;;;;;;1.42;0.90;;;11.10;99.90;;;;;;6165483;28;20235;-67
2022/09/21 08:01:42;;;;;;;1.00;1.00;;;11.20;99.90;;;;;;6165808;29;20264;-68
2022/09/21 08:04:46;;;;;;;0.68;0.68;;;11.30;99.90;;;;;;6165232;28;20235;-68
2022/09/21 08:07:51;;;;;;;1.17;0.80;;;11.30;99.90;;;;;;6164840;28;20223;-68
2022/09/21 08:10:56;;;;;;;2.67;1.25;;;11.30;99.90;;;;;;6154032;29;20232;-68
2022/09/21 08:14:04;;;;;;;1.80;1.10;;;11.40;99.90;;;;;;6141206;29;20303;-69
2022/09/21 08:17:11;;;;;;;2.95;0.95;;;11.40;99.90;;;;;;6140534;29;20622;-68
2022/09/21 08:20:15;;;;;;;1.48;1.13;;;11.40;99.90;;;;;;6140968;29;20569;-68
2022/09/21 08:23:20;;;;;;;0.90;0.90;;;11.40;99.90;;;;;;6140823;29;20230;-68
2022/09/21 08:26:25;;;;;;;1.13;1.10;;;11.50;99.90;;;;;;6141095;29;20195;-67
2022/09/21 08:29:29;;;;;;;1.42;1.08;;;11.50;99.90;;;;;;6141025;29;20235;-68
2022/09/21 08:32:34;;;;;;;0.80;0.80;;;11.50;99.90;;;;;;6140974;29;20195;-68
2022/09/21 08:35:55;;;;;;;2.80;1.23;;;11.50;99.90;;;;;;6141389;29;20192;-68
2022/09/21 08:38:59;;;;;;;6.88;1.10;;;11.50;99.90;;;;;;6140324;29;20422;-68
2022/09/21 08:42:40;;;;;;;1.02;1.02;;;11.50;99.90;;;;;;6140843;29;20196;-67
2022/09/21 08:45:45;;;;;;;0.80;0.80;;;11.60;99.90;;;;;;6117084;29;20265;-67
2022/09/21 08:48:56;;;;;;;0.93;0.82;;;11.50;99.90;;;;;;6129268;29;20236;-67
2022/09/21 08:52:04;;;;;;;1.75;0.90;;;11.60;99.90;;;;;;6140992;29;20188;-67
2022/09/21 08:55:17;;;;;;;1.13;1.13;;;11.70;99.90;;;;;;6140522;28;20303;-68
2022/09/21 08:58:24;;;;;;;3.30;1.10;;;11.70;99.90;;;;;;6140472;29;20255;-68
2022/09/21 09:01:43;;;;;;;1.20;1.17;;;11.70;99.90;;;;;;6139385;29;20311;-68
2022/09/21 09:04:57;;;;;;;1.30;1.30;;;11.70;99.90;;;;;;6140383;29;20429;-68
2022/09/21 09:08:31;;;;;;;1.75;0.93;;;11.70;99.90;;;;;;6139810;29;20399;-67
2022/09/21 09:11:48;;;;;;;1.10;1.10;;;11.80;99.90;;;;;;6155087;29;20242;-67
2022/09/21 09:15:21;;;;;;;3.20;0.95;;;11.80;99.90;;;;;;6164032;28;20281;-67
2022/09/21 09:18:34;;;;;;;1.15;1.00;;;11.80;99.90;;;;;;6164078;28;20461;-68
2022/09/21 09:21:45;;;;;;;1.27;1.27;;;11.80;99.90;;;;;;6164307;29;20290;-68
2022/09/21 09:24:51;;;;;;;1.30;1.20;;;11.90;99.90;;;;;;6163786;28;20238;-67
2022/09/21 09:27:59;;;;;;;0.80;0.80;;;11.90;99.90;;;;;;6164935;28;20424;-68
2022/09/21 09:31:12;;;;;;;0.95;0.95;;;11.90;99.90;;;;;;6169213;29;20192;-68
2022/09/21 09:34:23;;;;;;;2.85;1.10;;;11.90;99.90;;;;;;6168805;28;20240;-66
2022/09/21 09:37:34;;;;;;;1.10;1.02;;;11.90;99.90;;;;;;6168112;28;20501;-67
2022/09/21 09:41:05;;;;;;;0.82;0.82;;;12.00;99.90;;;;;;6169152;29;20215;-68
2022/09/21 09:44:34;;;;;;;1.15;1.15;;;12.10;99.90;;;;;;6168574;28;20237;-67
2022/09/21 09:47:51;;;;;;;0.80;0.77;;;12.10;99.90;;;;;;6168275;28;20226;-67
2022/09/21 09:50:55;;;;;;;0.80;0.80;;;12.10;99.90;;;;;;6168402;28;20494;-67
2022/09/21 09:54:02;;;;;;;1.48;0.95;;;12.10;99.90;;;;;;6168243;28;20294;-67
2022/09/21 09:57:13;;;;;;;0.90;0.90;;;12.20;99.90;;;;;;6168806;29;20187;-67
2022/09/21 10:00:20;;;;;;;4.63;1.00;;;12.20;99.90;;;;;;6168249;29;20258;-67
2022/09/21 10:03:27;;;;;;;0.80;0.80;;;12.20;99.90;;;;;;6168151;28;20327;-67
2022/09/21 10:06:32;;;;;;;0.75;0.75;;;12.30;99.90;;;;;;6168404;29;20187;-67
2022/09/21 10:09:38;;;;;;;1.02;0.90;;;12.30;99.90;;;;;;6148412;28;20255;-68
2022/09/21 10:12:47;;;;;;;0.80;0.80;;;12.40;99.90;;;;;;6120123;29;20582;-68
2022/09/21 10:15:52;;;;;;;0.80;0.80;;;12.50;99.90;;;;;;6120839;29;20216;-68
2022/09/21 10:19:00;;;;;;;0.70;0.70;;;12.50;99.90;;;;;;6133286;29;20537;-68
2022/09/21 10:22:05;;;;;;;1.08;0.80;;;12.60;99.90;;;;;;6144250;29;20223;-67
2022/09/21 10:25:18;;;;;;;3.25;0.90;;;12.70;99.90;;;;;;6143709;28;20251;-68
2022/09/21 10:28:23;;;;;;;0.70;0.70;;;12.70;99.90;;;;;;6143658;29;20291;-68
2022/09/21 10:31:28;;;;;;;0.93;0.93;;;12.80;99.80;;;;;;6144169;29;20192;-68
2022/09/21 10:34:35;;;;;;;0.98;0.90;;;12.90;99.60;;;;;;6143579;29;20302;-68
2022/09/21 10:37:41;;;;;;;0.70;0.70;;;12.90;99.40;;;;;;6143519;29;20294;-68
2022/09/21 10:40:47;;;;;;;0.75;0.75;;;13.00;99.10;;;;;;6142483;29;20455;-68
2022/09/21 10:43:53;;;;;;;2.13;1.00;;;13.10;99.10;;;;;;6143374;29;20251;-67
2022/09/21 10:47:18;;;;;;;0.60;0.60;;;13.10;98.40;;;;;;6143684;29;20236;-67
2022/09/21 10:50:27;;;;;;;0.60;0.60;;;13.20;98.50;;;;;;6119721;29;20229;-67
2022/09/21 10:53:33;;;;;;;0.60;0.60;;;13.10;98.40;;;;;;6128988;29;20238;-67
2022/09/21 10:56:52;;;;;;;0.60;0.60;;;13.20;98.40;;;;;;6142951;29;20506;-68
2022/09/21 10:59:57;;;;;;;2.95;2.85;;;13.20;97.30;;;;;;6142771;28;20251;-67
2022/09/21 11:03:21;;;;;;;1.50;1.50;;;13.20;96.50;;;;;;6142633;29;20426;-67
2022/09/21 11:06:30;;;;;;;2.30;2.30;;;13.30;96.00;;;;;;6143132;29;20292;-67
2022/09/21 11:09:41;;;;;;;1.00;1.00;;;13.40;96.00;;;;;;6143093;29;20252;-67
2022/09/21 11:12:55;;;;;;;1.70;1.70;;;13.50;95.60;;;;;;6165951;28;20318;-67
2022/09/21 11:16:04;;;;;;;1.15;1.15;;;13.50;95.80;;;;;;6166325;29;20218;-67
2022/09/21 11:19:20;;;;;;;0.80;0.75;;;13.60;96.00;;;;;;6166500;28;20238;-67
2022/09/21 11:22:32;;;;;;;0.63;0.63;;;13.60;95.70;;;;;;6165893;28;20215;-67
2022/09/21 11:25:44;;;;;;;0.77;0.63;;;13.70;95.80;;;;;;6166429;28;20417;-68
2022/09/21 11:28:53;;;;;;;3.33;1.98;;;13.70;95.70;;;;;;6165906;28;20234;-68
2022/09/21 11:32:16;;;;;;;4.60;4.50;;;13.80;95.70;;;;;;6166157;29;20483;-68
2022/09/21 11:35:35;;;;;;;2.17;1.90;;;13.90;95.50;;;;;;6142246;29;20208;-68
2022/09/21 11:38:54;;;;;;;0.90;0.90;;;13.90;95.80;;;;;;6153214;28;20258;-68
2022/09/21 11:42:13;;;;;;;0.70;0.70;;;13.90;97.10;;;;;;6165760;29;20282;-67
2022/09/21 11:45:35;;;;;;;0.82;0.82;;;13.90;96.20;;;;;;6165853;29;20213;-67
2022/09/21 11:48:55;;;;;;;0.70;0.70;;;13.80;96.70;;;;;;6165645;28;20302;-67
2022/09/21 11:52:20;;;;;;;0.80;0.80;;;13.80;97.20;;;;;;6165929;28;20263;-67
2022/09/21 11:55:48;;;;;;;0.60;0.60;;;13.80;96.90;;;;;;6141859;29;20227;-67
2022/09/21 11:59:05;;;;;;;0.70;0.70;;;13.70;97.00;;;;;;6140462;29;20250;-67
2022/09/21 12:02:36;;;;;;;0.70;0.70;;;13.80;97.30;;;;;;6141977;29;20216;-67
2022/09/21 12:05:48;;;;;;;0.50;0.50;;;13.80;97.20;;;;;;6141688;29;20300;-68
2022/09/21 12:09:06;;;;;;;0.68;0.68;;;13.80;96.50;;;;;;6140797;29;20514;-67
2022/09/21 12:12:15;;;;;;;2.17;0.80;;;13.80;96.30;;;;;;6120420;29;20264;-68
2022/09/21 12:15:25;;;;;;;1.48;0.60;;;13.80;96.20;;;;;;6141436;29;20282;-68
2022/09/21 12:18:36;;;;;;;0.85;0.85;;;13.90;95.90;;;;;;6140972;28;20283;-67
2022/09/21 12:21:44;;;;;;;0.60;0.60;;;14.00;95.80;;;;;;6141554;29;20223;-67
2022/09/21 12:24:51;;;;;;;0.52;0.52;;;14.00;95.80;;;;;;6141050;29;20231;-67
2022/09/21 12:28:05;;;;;;;1.05;0.70;;;14.00;95.30;;;;;;6140925;29;20270;-67
2022/09/21 12:31:16;;;;;;;0.80;0.80;;;14.10;95.30;;;;;;6140323;29;20200;-67
2022/09/21 12:34:26;;;;;;;0.70;0.70;;;14.10;95.50;;;;;;6140809;29;20227;-66
2022/09/21 12:37:35;;;;;;;0.90;0.75;;;14.10;94.80;;;;;;6140203;29;20491;-67
2022/09/21 12:40:48;;;;;;;1.55;0.52;;;14.20;95.00;;;;;;6139878;29;20259;-67
2022/09/21 12:44:02;;;;;;;0.40;0.40;;;14.10;95.10;;;;;;6140563;29;20339;-67
2022/09/21 12:47:11;;;;;;;0.85;0.60;;;14.10;96.30;;;;;;6140745;29;20216;-67
2022/09/21 12:50:22;;;;;;;1.27;0.68;;;14.10;96.10;;;;;;6140500;29;20542;-66
2022/09/21 12:53:29;;;;;;;0.50;0.50;;;14.10;96.00;;;;;;6140261;29;20235;-67
2022/09/21 12:56:39;;;;;;;0.60;0.60;;;14.10;95.30;;;;;;6140468;29;20453;-67
2022/09/21 12:59:49;;;;;;;1.75;0.98;;;14.10;94.90;;;;;;6140224;29;20429;-67
2022/09/21 13:02:58;;;;;;;1.15;0.50;;;14.10;94.80;;;;;;6139785;29;20235;-67
2022/09/21 13:06:44;;;;;;;2.38;0.70;;;14.20;94.60;;;;;;6140378;29;20227;-67
2022/09/21 13:09:50;;;;;;;2.28;0.70;;;14.20;93.50;;;;;;6142668;29;20291;-67
2022/09/21 13:13:00;;;;;;;0.60;0.60;;;14.20;96.00;;;;;;6163707;28;20230;-67
2022/09/21 13:16:06;;;;;;;0.60;0.60;;;14.10;94.50;;;;;;6164294;29;20187;-67
2022/09/21 13:19:22;;;;;;;1.00;1.00;;;14.10;94.10;;;;;;6163994;28;20302;-67
2022/09/21 13:22:32;;;;;;;1.67;0.60;;;14.20;93.60;;;;;;6163450;28;20530;-66
2022/09/21 13:25:36;;;;;;;2.20;0.60;;;14.30;96.10;;;;;;6164197;28;20234;-67
2022/09/21 13:29:36;;;;;;;0.70;0.70;;;14.20;94.00;;;;;;6164016;28;20238;-67
2022/09/21 13:32:53;;;;;;;0.70;0.70;;;14.30;94.60;;;;;;6154922;28;20235;-68
2022/09/21 13:36:07;;;;;;;0.50;0.50;;;14.40;93.80;;;;;;6164180;29;20267;-67
2022/09/21 13:39:18;;;;;;;1.35;0.60;;;14.40;92.60;;;;;;6163615;28;20515;-67
2022/09/21 13:42:45;;;;;;;0.60;0.60;;;14.50;93.40;;;;;;6163228;28;20218;-68
2022/09/21 13:45:56;;;;;;;2.10;0.60;;;14.40;92.70;;;;;;6164083;29;20187;-67
2022/09/21 13:49:04;;;;;;;2.75;0.50;;;14.40;92.70;;;;;;6163644;28;20235;-67
2022/09/21 13:52:30;;;;;;;0.50;0.50;;;14.90;93.40;;;;;;6164279;29;20264;-67
2022/09/21 13:55:39;;;;;;;0.38;0.38;;;15.20;94.40;;;;;;6139765;29;20215;-67
2022/09/21 13:58:46;;;;;;;0.70;0.70;;;14.90;91.90;;;;;;6139827;29;20344;-68
2022/09/21 14:01:50;;;;;;;0.90;0.90;;;15.00;91.60;;;;;;6139935;29;20328;-67
2022/09/21 14:04:55;;;;;;;0.80;0.80;;;14.80;92.60;;;;;;6139716;29;20247;-67
2022/09/21 14:08:03;;;;;;;0.80;0.80;;;14.80;92.50;;;;;;6139547;29;20298;-67
2022/09/21 14:11:16;;;;;;;0.50;0.50;;;14.60;93.20;;;;;;6127049;29;20514;-67
2022/09/21 14:14:28;;;;;;;0.50;0.50;;;14.50;92.60;;;;;;6132458;29;20242;-67
2022/09/21 14:17:36;;;;;;;0.60;0.60;;;14.40;92.30;;;;;;6143876;28;20256;-67
2022/09/21 14:20:41;;;;;;;0.65;0.65;;;14.30;96.70;;;;;;6144053;29;20255;-67
2022/09/21 14:24:19;;;;;;;0.70;0.70;;;14.20;97.50;;;;;;6143780;29;20316;-68
2022/09/21 14:27:28;;;;;;;0.70;0.70;;;14.00;97.70;;;;;;6143225;29;20243;-67
2022/09/21 14:30:35;;;;;;;1.45;0.73;;;14.00;98.90;;;;;;6144110;29;20260;-67
2022/09/21 14:33:47;;;;;;;0.85;0.85;;;13.90;99.70;;;;;;6143587;29;20236;-67
2022/09/21 14:36:54;;;;;;;0.77;0.77;;;13.80;99.90;;;;;;6143990;29;20263;-67
2022/09/21 14:39:59;;;;;;;1.08;1.08;;;13.80;99.80;;;;;;6143421;29;20303;-67
2022/09/21 14:43:09;;;;;;;2.15;0.80;;;13.70;99.90;;;;;;6143115;29;20231;-67
2022/09/21 14:46:58;;;;;;;7.22;1.05;;;13.70;99.90;;;;;;6143688;29;20216;-67
2022/09/21 14:50:31;;;;;;;2.38;1.20;;;13.70;98.90;;;;;;6135802;29;20252;-68
2022/09/21 14:53:57;;;;;;;1.38;0.98;;;13.60;99.90;;;;;;6142890;29;20235;-67
2022/09/21 14:57:20;;;;;;;1.23;1.00;;;13.40;99.90;;;;;;6143561;29;20188;-68
2022/09/21 15:00:38;;;;;;;4.22;1.27;;;13.40;99.90;;;;;;6119281;29;20223;-68
2022/09/21 15:04:07;;;;;;;7.93;1.33;;;13.50;95.70;;;;;;6130436;29;20251;-68
2022/09/21 15:10:56;;;;;;;1.15;1.15;;;13.90;93.90;;;;;;6152705;29;20235;-68
2022/09/21 15:14:19;;;;;;;0.70;0.70;;;14.00;94.00;;;;;;6166589;28;20235;-68
2022/09/21 15:17:28;;;;;;;0.68;0.68;;;14.00;97.20;;;;;;6165041;28;20441;-67
2022/09/21 15:20:32;;;;;;;0.73;0.73;;;13.90;98.30;;;;;;6142917;29;20248;-67
2022/09/21 15:23:40;;;;;;;0.80;0.80;;;13.80;99.30;;;;;;6152769;28;20544;-67
2022/09/21 15:26:44;;;;;;;0.82;0.82;;;13.70;99.90;;;;;;6166276;28;20271;-68
2022/09/21 15:29:50;;;;;;;1.27;0.80;;;13.60;99.90;;;;;;6146140;28;20303;-67
2022/09/21 15:32:57;;;;;;;0.80;0.80;;;13.60;99.90;;;;;;6146704;28;20242;-67
2022/09/21 15:36:02;;;;;;;3.10;1.00;;;13.60;99.90;;;;;;6165918;29;20418;-66
2022/09/21 15:39:12;;;;;;;1.27;0.80;;;13.60;99.90;;;;;;6150955;28;20300;-66
2022/09/21 15:42:21;;;;;;;1.38;1.00;;;13.60;99.90;;;;;;6142386;29;20263;-68
2022/09/21 15:45:28;;;;;;;1.48;1.38;;;13.50;99.90;;;;;;6141743;29;20499;-68
2022/09/21 15:48:36;;;;;;;1.10;1.10;;;13.40;99.90;;;;;;6141954;29;20239;-67
2022/09/21 15:51:44;;;;;;;1.10;1.10;;;13.50;99.90;;;;;;6142372;29;20189;-68
2022/09/21 15:54:53;;;;;;;1.10;1.10;;;13.50;99.90;;;;;;6141638;29;20594;-67
2022/09/21 15:57:58;;;;;;;1.02;1.02;;;13.40;99.90;;;;;;6141226;29;20459;-67
2022/09/21 16:01:03;;;;;;;1.10;1.10;;;13.30;99.90;;;;;;6142175;29;20200;-67
2022/09/21 16:04:14;;;;;;;1.52;1.30;;;13.20;99.90;;;;;;6141346;29;20243;-67
2022/09/21 16:07:30;;;;;;;1.85;1.27;;;13.10;99.90;;;;;;6141468;29;20196;-67
2022/09/21 16:10:39;;;;;;;1.13;1.13;;;13.10;99.90;;;;;;6133450;29;20296;-67
2022/09/21 16:17:25;;;;;;;1.30;1.30;;;13.00;99.90;;;;;;6117717;29;20411;-67
2022/09/21 16:20:42;;;;;;;1.27;1.27;;;13.00;99.90;;;;;;6141308;29;20231;-67
2022/09/21 16:23:47;;;;;;;2.08;1.70;;;12.90;99.90;;;;;;6141204;28;20303;-68
2022/09/21 16:26:58;;;;;;;1.13;1.13;;;12.80;99.90;;;;;;6141150;29;20234;-66
2022/09/21 16:30:03;;;;;;;1.10;1.10;;;12.80;99.90;;;;;;6140932;29;20630;-67
2022/09/21 16:33:37;;;;;;;2.38;1.40;;;12.80;99.90;;;;;;6139992;29;20231;-67
2022/09/21 16:36:46;;;;;;;1.17;1.17;;;12.70;99.90;;;;;;6138947;29;20203;-68
2022/09/21 16:39:50;;;;;;;1.30;1.30;;;12.70;99.90;;;;;;6139714;29;20238;-68
2022/09/21 16:42:55;;;;;;;1.40;1.40;;;12.60;99.90;;;;;;6140276;29;20311;-67
2022/09/21 16:46:01;;;;;;;5.47;1.90;;;12.60;99.90;;;;;;6141180;29;20189;-69